Terminal Aerodrome Forecast
Issued by NWS Pittsburgh, PA

Current Version | Previous Version | Graphics & Text | Print | Product List | Glossary On
Versions: 1 2 3 4 5 6 7 8 9 10 11 12 13 14 15 16 17 18 19 20 21 22 23 24
000
FTUS41 KPBZ 260256 AAA
TAFPIT
TAF AMD
KPIT 260256Z 2603/2706 23005KT P6SM BKN100
     FM261200 20005KT P6SM BKN060
     FM261700 21007KT P6SM VCTS BKN050CB
     FM262300 22005KT P6SM BKN080=

USA.gov is the U.S. government's official web portal to all federal, state and local government web resources and services.